This is the latest recevied weather packets stored in our database for station/object KD4EG. If no packets are shown the sender has not sent any weather packets the latest 10 day(s).
| Time | Temp. | Humidity | Pressure | Rain* | Wind** | Luminosity | Snow |
|---|---|---|---|---|---|---|---|
| 1777940721 | 19.44° C | 59% | 1013.9 hPa | 0 mm | - | 0 W/m² | - |
| 1777940421 | 20° C | 58% | 1013.8 hPa | 0 mm | - | 0 W/m² | - |
| 1777940117 | 20° C | 58% | 1013.7 hPa | 0 mm | - | 0 W/m² | - |
| 1777939814 | 20.56° C | 56% | 1013.9 hPa | 0 mm | - | 2 W/m² | - |
| 1777939512 | 21.67° C | 52% | 1013.8 hPa | 0 mm | - | 5 W/m² | - |
| 1777939209 | 22.22° C | 49% | 1013.7 hPa | 0 mm | - | 7 W/m² | - |
| 1777938906 | 22.78° C | 45% | 1013.7 hPa | 0 mm | - | 10 W/m² | - |
| 1777938602 | 23.33° C | 44% | 1013.6 hPa | 0 mm | - | 14 W/m² | - |
| 1777938300 | 23.89° C | 41% | 1013.5 hPa | 0 mm | - | 16 W/m² | - |
| 1777937996 | 23.89° C | 41% | 1013.5 hPa | 0 mm | - | 20 W/m² | - |
| 1777937691 | 24.44° C | 40% | 1013.4 hPa | 0 mm | - | 23 W/m² | - |
| 1777937389 | 24.44° C | 40% | 1013.6 hPa | 0 mm | - | 29 W/m² | - |
| 1777937086 | 25° C | 40% | 1013.6 hPa | 0 mm | - | 32 W/m² | - |
| 1777936783 | 25° C | 40% | 1013.4 hPa | 0 mm | - | 38 W/m² | - |
| 1777936479 | 25° C | 40% | 1013.6 hPa | 0 mm | - | 42 W/m² | - |
| 1777936176 | 24.44° C | 40% | 1013.5 hPa | 0 mm | - | 47 W/m² | - |
| 1777935872 | 25° C | 39% | 1013.5 hPa | 0 mm | - | 55 W/m² | - |
| 1777935572 | 25° C | 39% | 1013.4 hPa | 0 mm | - | 69 W/m² | - |
| 1777935268 | 25° C | 39% | 1013.7 hPa | 0 mm | - | 75 W/m² | - |
| 1777934965 | 25° C | 39% | 1013.4 hPa | 0 mm | - | 60 W/m² | - |
| 1777934662 | 25° C | 39% | 1013.6 hPa | 0 mm | - | 50 W/m² | - |
| 1777934359 | 25.56° C | 38% | 1013.6 hPa | 0 mm | - | 120 W/m² | - |
| 1777934054 | 25.56° C | 39% | 1013.7 hPa | 0 mm | - | 138 W/m² | - |
| 1777933750 | 25.56° C | 38% | 1013.4 hPa | 0 mm | - | 143 W/m² | - |
| 1777933448 | 25.56° C | 39% | 1013.7 hPa | 0 mm | - | 161 W/m² | - |
* Rain latest hour (hover to see other rain measurements)
** Current wind speed in m/s (hover to see current wind gust speed)